sensor_id;sensor_type;location;lat;lon;timestamp;temperature;humidity
7936;DHT22;4013;49.744;8.118;2023-02-28T00:00:17;-0.50;99.90
7936;DHT22;4013;49.744;8.118;2023-02-28T00:02:45;-0.40;99.90
7936;DHT22;4013;49.744;8.118;2023-02-28T00:05:19;-0.40;99.90
7936;DHT22;4013;49.744;8.118;2023-02-28T00:07:46;-0.30;99.90
7936;DHT22;4013;49.744;8.118;2023-02-28T00:10:15;-0.40;99.90
7936;DHT22;4013;49.744;8.118;2023-02-28T00:12:45;-0.30;99.90
7936;DHT22;4013;49.744;8.118;2023-02-28T00:15:12;-0.30;99.90
7936;DHT22;4013;49.744;8.118;2023-02-28T00:17:38;-0.20;99.90
7936;DHT22;4013;49.744;8.118;2023-02-28T00:20:08;-0.10;99.90
7936;DHT22;4013;49.744;8.118;2023-02-28T00:22:38;-0.10;99.90
7936;DHT22;4013;49.744;8.118;2023-02-28T00:25:08;-0.20;99.90
7936;DHT22;4013;49.744;8.118;2023-02-28T00:27:36;-0.20;99.90
7936;DHT22;4013;49.744;8.118;2023-02-28T00:30:05;-0.40;99.90
7936;DHT22;4013;49.744;8.118;2023-02-28T00:32:32;-0.40;99.90
7936;DHT22;4013;49.744;8.118;2023-02-28T00:35:00;-0.40;99.90
7936;DHT22;4013;49.744;8.118;2023-02-28T00:37:28;-0.40;99.90
7936;DHT22;4013;49.744;8.118;2023-02-28T00:39:56;-0.40;99.90
7936;DHT22;4013;49.744;8.118;2023-02-28T00:42:23;-0.40;99.90
7936;DHT22;4013;49.744;8.118;2023-02-28T00:44:51;-0.40;99.90
7936;DHT22;4013;49.744;8.118;2023-02-28T00:47:17;-0.50;99.90
7936;DHT22;4013;49.744;8.118;2023-02-28T00:49:44;-0.60;99.90
7936;DHT22;4013;49.744;8.118;2023-02-28T00:52:11;-0.60;99.90
7936;DHT22;4013;49.744;8.118;2023-02-28T00:54:38;-0.60;99.90
7936;DHT22;4013;49.744;8.118;2023-02-28T00:57:07;-0.60;99.90
7936;DHT22;4013;49.744;8.118;2023-02-28T00:59:34;-0.60;99.90
7936;DHT22;4013;49.744;8.118;2023-02-28T01:02:00;-0.70;99.90
7936;DHT22;4013;49.744;8.118;2023-02-28T01:04:27;-0.60;99.90
7936;DHT22;4013;49.744;8.118;2023-02-28T01:06:54;-0.70;99.90
7936;DHT22;4013;49.744;8.118;2023-02-28T01:09:21;-0.70;99.90
7936;DHT22;4013;49.744;8.118;2023-02-28T01:11:48;-0.70;99.90
7936;DHT22;4013;49.744;8.118;2023-02-28T01:14:17;-0.70;99.90
7936;DHT22;4013;49.744;8.118;2023-02-28T01:16:44;-0.70;99.90
7936;DHT22;4013;49.744;8.118;2023-02-28T01:19:12;-0.70;99.90
7936;DHT22;4013;49.744;8.118;2023-02-28T01:21:39;-0.70;99.90
7936;DHT22;4013;49.744;8.118;2023-02-28T01:24:06;-0.70;99.90
7936;DHT22;4013;49.744;8.118;2023-02-28T01:26:33;-0.60;99.90
7936;DHT22;4013;49.744;8.118;2023-02-28T01:29:00;-0.50;99.90
7936;DHT22;4013;49.744;8.118;2023-02-28T01:31:29;-0.40;99.90
7936;DHT22;4013;49.744;8.118;2023-02-28T01:33:56;-0.40;99.90
7936;DHT22;4013;49.744;8.118;2023-02-28T01:36:24;-0.60;99.90
7936;DHT22;4013;49.744;8.118;2023-02-28T01:38:52;-0.70;99.90
7936;DHT22;4013;49.744;8.118;2023-02-28T01:41:21;-0.80;99.90
7936;DHT22;4013;49.744;8.118;2023-02-28T01:43:54;-1.00;99.90
7936;DHT22;4013;49.744;8.118;2023-02-28T01:46:22;-1.00;99.90
7936;DHT22;4013;49.744;8.118;2023-02-28T01:48:52;-1.00;99.90
7936;DHT22;4013;49.744;8.118;2023-02-28T01:51:22;-0.90;99.90
7936;DHT22;4013;49.744;8.118;2023-02-28T01:53:54;-0.80;99.90
7936;DHT22;4013;49.744;8.118;2023-02-28T01:56:25;-0.80;99.90
7936;DHT22;4013;49.744;8.118;2023-02-28T01:58:54;-0.80;99.90
7936;DHT22;4013;49.744;8.118;2023-02-28T02:01:22;-0.70;99.90
7936;DHT22;4013;49.744;8.118;2023-02-28T02:03:53;-0.60;99.90
7936;DHT22;4013;49.744;8.118;2023-02-28T02:06:22;-0.50;99.90
7936;DHT22;4013;49.744;8.118;2023-02-28T02:08:49;-0.60;99.90
7936;DHT22;4013;49.744;8.118;2023-02-28T02:11:18;-0.60;99.90
7936;DHT22;4013;49.744;8.118;2023-02-28T02:14:10;-0.70;99.90
7936;DHT22;4013;49.744;8.118;2023-02-28T02:16:52;-0.70;99.90
7936;DHT22;4013;49.744;8.118;2023-02-28T02:19:42;-0.80;99.90
7936;DHT22;4013;49.744;8.118;2023-02-28T02:22:26;-0.80;99.90
7936;DHT22;4013;49.744;8.118;2023-02-28T02:25:19;-0.80;99.90
7936;DHT22;4013;49.744;8.118;2023-02-28T02:28:05;-1.00;99.90
7936;DHT22;4013;49.744;8.118;2023-02-28T02:30:52;-0.90;99.90
7936;DHT22;4013;49.744;8.118;2023-02-28T02:33:33;-1.00;99.90
7936;DHT22;4013;49.744;8.118;2023-02-28T02:36:12;-1.00;99.90
7936;DHT22;4013;49.744;8.118;2023-02-28T02:38:45;-0.90;99.90
7936;DHT22;4013;49.744;8.118;2023-02-28T02:41:18;-0.80;99.90
7936;DHT22;4013;49.744;8.118;2023-02-28T02:43:50;-0.80;99.90
7936;DHT22;4013;49.744;8.118;2023-02-28T02:46:20;-0.90;99.90
7936;DHT22;4013;49.744;8.118;2023-02-28T02:48:48;-0.90;99.90
7936;DHT22;4013;49.744;8.118;2023-02-28T02:51:21;-0.80;99.90
7936;DHT22;4013;49.744;8.118;2023-02-28T02:53:50;-0.80;99.90
7936;DHT22;4013;49.744;8.118;2023-02-28T02:56:20;-0.80;99.90
7936;DHT22;4013;49.744;8.118;2023-02-28T02:58:50;-0.70;99.90
7936;DHT22;4013;49.744;8.118;2023-02-28T03:01:22;-0.70;99.90
7936;DHT22;4013;49.744;8.118;2023-02-28T03:03:55;-0.70;99.90
7936;DHT22;4013;49.744;8.118;2023-02-28T03:06:25;-0.80;99.90
7936;DHT22;4013;49.744;8.118;2023-02-28T03:08:52;-0.80;99.90
7936;DHT22;4013;49.744;8.118;2023-02-28T03:11:19;-1.00;99.90
7936;DHT22;4013;49.744;8.118;2023-02-28T03:13:58;-1.20;99.90
7936;DHT22;4013;49.744;8.118;2023-02-28T03:16:35;-1.20;99.90
7936;DHT22;4013;49.744;8.118;2023-02-28T03:19:23;-1.10;99.90
7936;DHT22;4013;49.744;8.118;2023-02-28T03:22:07;-1.10;99.90
7936;DHT22;4013;49.744;8.118;2023-02-28T03:24:42;-1.10;99.90
7936;DHT22;4013;49.744;8.118;2023-02-28T03:27:15;-1.10;99.90
7936;DHT22;4013;49.744;8.118;2023-02-28T03:29:47;-1.10;99.90
7936;DHT22;4013;49.744;8.118;2023-02-28T03:32:21;-1.20;99.90
7936;DHT22;4013;49.744;8.118;2023-02-28T03:34:56;-1.30;99.90
7936;DHT22;4013;49.744;8.118;2023-02-28T03:37:26;-1.30;99.90
7936;DHT22;4013;49.744;8.118;2023-02-28T03:39:58;-1.30;99.90
7936;DHT22;4013;49.744;8.118;2023-02-28T03:42:29;-1.30;99.90
7936;DHT22;4013;49.744;8.118;2023-02-28T03:44:57;-1.30;99.90
7936;DHT22;4013;49.744;8.118;2023-02-28T03:47:28;-1.40;99.90
7936;DHT22;4013;49.744;8.118;2023-02-28T03:49:59;-1.40;99.90
7936;DHT22;4013;49.744;8.118;2023-02-28T03:52:33;-1.40;99.90
7936;DHT22;4013;49.744;8.118;2023-02-28T03:55:03;-1.50;99.90
7936;DHT22;4013;49.744;8.118;2023-02-28T03:57:36;-1.50;99.90
7936;DHT22;4013;49.744;8.118;2023-02-28T04:00:09;-1.50;99.90
7936;DHT22;4013;49.744;8.118;2023-02-28T04:02:37;-1.50;99.90
7936;DHT22;4013;49.744;8.118;2023-02-28T04:05:05;-1.40;99.90
7936;DHT22;4013;49.744;8.118;2023-02-28T04:07:34;-1.50;99.90
7936;DHT22;4013;49.744;8.118;2023-02-28T04:10:01;-1.50;99.90
7936;DHT22;4013;49.744;8.118;2023-02-28T04:12:28;-1.50;99.90
7936;DHT22;4013;49.744;8.118;2023-02-28T04:14:55;-1.40;99.90
7936;DHT22;4013;49.744;8.118;2023-02-28T04:17:22;-1.50;99.90
7936;DHT22;4013;49.744;8.118;2023-02-28T04:19:49;-1.60;99.90
7936;DHT22;4013;49.744;8.118;2023-02-28T04:22:16;-1.50;99.90
7936;DHT22;4013;49.744;8.118;2023-02-28T04:24:45;-1.60;99.90
7936;DHT22;4013;49.744;8.118;2023-02-28T04:27:12;-1.60;99.90
7936;DHT22;4013;49.744;8.118;2023-02-28T04:29:41;-1.60;99.90
7936;DHT22;4013;49.744;8.118;2023-02-28T04:32:10;-1.70;99.90
7936;DHT22;4013;49.744;8.118;2023-02-28T04:34:37;-1.80;99.90
7936;DHT22;4013;49.744;8.118;2023-02-28T04:37:04;-1.80;99.90
7936;DHT22;4013;49.744;8.118;2023-02-28T04:39:35;-1.80;99.90
7936;DHT22;4013;49.744;8.118;2023-02-28T04:42:04;-1.80;99.90
7936;DHT22;4013;49.744;8.118;2023-02-28T04:44:31;-1.70;99.90
7936;DHT22;4013;49.744;8.118;2023-02-28T04:46:58;-1.80;99.90
7936;DHT22;4013;49.744;8.118;2023-02-28T04:49:25;-1.80;99.90
7936;DHT22;4013;49.744;8.118;2023-02-28T04:51:52;-1.80;99.90
7936;DHT22;4013;49.744;8.118;2023-02-28T04:54:19;-1.70;99.90
7936;DHT22;4013;49.744;8.118;2023-02-28T04:56:46;-1.60;99.90
7936;DHT22;4013;49.744;8.118;2023-02-28T04:59:17;-1.60;99.90
7936;DHT22;4013;49.744;8.118;2023-02-28T05:01:46;-1.60;99.90
7936;DHT22;4013;49.744;8.118;2023-02-28T05:04:13;-1.60;99.90
7936;DHT22;4013;49.744;8.118;2023-02-28T05:06:40;-1.70;99.90
7936;DHT22;4013;49.744;8.118;2023-02-28T05:09:07;-1.60;99.90
7936;DHT22;4013;49.744;8.118;2023-02-28T05:11:37;-1.60;99.90
7936;DHT22;4013;49.744;8.118;2023-02-28T05:14:06;-1.50;99.90
7936;DHT22;4013;49.744;8.118;2023-02-28T05:16:34;-1.40;99.90
7936;DHT22;4013;49.744;8.118;2023-02-28T05:19:01;-1.40;99.90
7936;DHT22;4013;49.744;8.118;2023-02-28T05:21:30;-1.50;99.90
7936;DHT22;4013;49.744;8.118;2023-02-28T05:23:59;-1.50;99.90
7936;DHT22;4013;49.744;8.118;2023-02-28T05:26:34;-1.70;99.90
7936;DHT22;4013;49.744;8.118;2023-02-28T05:29:02;-1.70;99.90
7936;DHT22;4013;49.744;8.118;2023-02-28T05:31:29;-1.70;99.90
7936;DHT22;4013;49.744;8.118;2023-02-28T05:33:57;-1.70;99.90
7936;DHT22;4013;49.744;8.118;2023-02-28T05:36:24;-1.80;99.90
7936;DHT22;4013;49.744;8.118;2023-02-28T05:38:51;-1.60;99.90
7936;DHT22;4013;49.744;8.118;2023-02-28T05:41:19;-1.60;99.90
7936;DHT22;4013;49.744;8.118;2023-02-28T05:43:46;-1.60;99.90
7936;DHT22;4013;49.744;8.118;2023-02-28T05:46:14;-1.70;99.90
7936;DHT22;4013;49.744;8.118;2023-02-28T05:48:41;-1.70;99.90
7936;DHT22;4013;49.744;8.118;2023-02-28T05:51:10;-1.70;99.90
7936;DHT22;4013;49.744;8.118;2023-02-28T05:53:37;-1.80;99.90
7936;DHT22;4013;49.744;8.118;2023-02-28T05:56:04;-1.80;99.90
7936;DHT22;4013;49.744;8.118;2023-02-28T05:58:31;-1.90;99.90
7936;DHT22;4013;49.744;8.118;2023-02-28T06:01:01;-1.80;99.90
7936;DHT22;4013;49.744;8.118;2023-02-28T06:03:45;-1.80;99.90
7936;DHT22;4013;49.744;8.118;2023-02-28T06:06:13;-1.90;99.90
7936;DHT22;4013;49.744;8.118;2023-02-28T06:08:40;-1.80;99.90
7936;DHT22;4013;49.744;8.118;2023-02-28T06:11:09;-1.80;99.90
7936;DHT22;4013;49.744;8.118;2023-02-28T06:13:36;-1.70;99.90
7936;DHT22;4013;49.744;8.118;2023-02-28T06:16:03;-1.70;99.90
7936;DHT22;4013;49.744;8.118;2023-02-28T06:18:30;-1.60;99.90
7936;DHT22;4013;49.744;8.118;2023-02-28T06:20:57;-1.50;99.90
7936;DHT22;4013;49.744;8.118;2023-02-28T06:23:25;-1.50;99.90
7936;DHT22;4013;49.744;8.118;2023-02-28T06:25:52;-1.50;99.90
7936;DHT22;4013;49.744;8.118;2023-02-28T06:28:23;-1.40;99.90
7936;DHT22;4013;49.744;8.118;2023-02-28T06:30:50;-1.40;99.90
7936;DHT22;4013;49.744;8.118;2023-02-28T06:33:17;-1.40;99.90
7936;DHT22;4013;49.744;8.118;2023-02-28T06:35:44;-1.50;99.90
7936;DHT22;4013;49.744;8.118;2023-02-28T06:38:12;-1.40;99.90
7936;DHT22;4013;49.744;8.118;2023-02-28T06:40:41;-1.40;99.90
7936;DHT22;4013;49.744;8.118;2023-02-28T06:43:09;-1.40;99.90
7936;DHT22;4013;49.744;8.118;2023-02-28T06:45:42;-1.50;99.90
7936;DHT22;4013;49.744;8.118;2023-02-28T06:48:09;-1.60;99.90
7936;DHT22;4013;49.744;8.118;2023-02-28T06:50:37;-1.70;99.90
7936;DHT22;4013;49.744;8.118;2023-02-28T06:53:04;-1.80;99.90
7936;DHT22;4013;49.744;8.118;2023-02-28T06:55:31;-1.80;99.90
7936;DHT22;4013;49.744;8.118;2023-02-28T06:57:59;-1.70;99.90
7936;DHT22;4013;49.744;8.118;2023-02-28T07:00:26;-1.70;99.90
7936;DHT22;4013;49.744;8.118;2023-02-28T07:02:53;-1.70;99.90
7936;DHT22;4013;49.744;8.118;2023-02-28T07:05:24;-1.70;99.90
7936;DHT22;4013;49.744;8.118;2023-02-28T07:07:55;-1.70;99.90
7936;DHT22;4013;49.744;8.118;2023-02-28T07:10:22;-1.70;99.90
7936;DHT22;4013;49.744;8.118;2023-02-28T07:12:49;-1.70;99.90
7936;DHT22;4013;49.744;8.118;2023-02-28T07:15:18;-1.70;99.90
7936;DHT22;4013;49.744;8.118;2023-02-28T07:17:45;-1.60;99.90
7936;DHT22;4013;49.744;8.118;2023-02-28T07:20:12;-1.50;99.90
7936;DHT22;4013;49.744;8.118;2023-02-28T07:22:39;-1.50;99.90
7936;DHT22;4013;49.744;8.118;2023-02-28T07:25:08;-1.50;99.90
7936;DHT22;4013;49.744;8.118;2023-02-28T07:27:35;-1.40;99.90
7936;DHT22;4013;49.744;8.118;2023-02-28T07:30:02;-1.40;99.90
7936;DHT22;4013;49.744;8.118;2023-02-28T07:32:31;-1.40;99.90
7936;DHT22;4013;49.744;8.118;2023-02-28T07:34:58;-1.30;99.90
7936;DHT22;4013;49.744;8.118;2023-02-28T07:37:25;-1.40;99.90
7936;DHT22;4013;49.744;8.118;2023-02-28T07:39:52;-1.40;99.90
7936;DHT22;4013;49.744;8.118;2023-02-28T07:42:18;-1.30;99.90
7936;DHT22;4013;49.744;8.118;2023-02-28T07:44:46;-1.30;99.90
7936;DHT22;4013;49.744;8.118;2023-02-28T07:47:13;-1.20;99.90
7936;DHT22;4013;49.744;8.118;2023-02-28T07:49:42;-1.20;99.90
7936;DHT22;4013;49.744;8.118;2023-02-28T07:52:09;-1.20;99.90
7936;DHT22;4013;49.744;8.118;2023-02-28T07:54:36;-1.10;99.90
7936;DHT22;4013;49.744;8.118;2023-02-28T07:57:02;-1.10;99.90
7936;DHT22;4013;49.744;8.118;2023-02-28T07:59:29;-1.00;99.90
7936;DHT22;4013;49.744;8.118;2023-02-28T08:01:57;-0.90;99.90
7936;DHT22;4013;49.744;8.118;2023-02-28T08:04:24;-0.90;99.90
7936;DHT22;4013;49.744;8.118;2023-02-28T08:06:52;-0.80;99.90
7936;DHT22;4013;49.744;8.118;2023-02-28T08:09:19;-0.80;99.90
7936;DHT22;4013;49.744;8.118;2023-02-28T08:11:46;-0.80;99.90
7936;DHT22;4013;49.744;8.118;2023-02-28T08:14:13;-0.80;99.90
7936;DHT22;4013;49.744;8.118;2023-02-28T08:16:41;-0.80;99.90
7936;DHT22;4013;49.744;8.118;2023-02-28T08:19:08;-0.70;99.90
7936;DHT22;4013;49.744;8.118;2023-02-28T08:21:35;-0.70;99.90
7936;DHT22;4013;49.744;8.118;2023-02-28T08:24:04;-0.60;99.90
7936;DHT22;4013;49.744;8.118;2023-02-28T08:26:31;-0.50;99.90
7936;DHT22;4013;49.744;8.118;2023-02-28T08:28:58;-0.40;99.90
7936;DHT22;4013;49.744;8.118;2023-02-28T08:31:28;-0.40;99.90
7936;DHT22;4013;49.744;8.118;2023-02-28T08:34:05;-0.30;99.90
7936;DHT22;4013;49.744;8.118;2023-02-28T08:36:32;-0.20;99.90
7936;DHT22;4013;49.744;8.118;2023-02-28T08:38:59;-0.10;99.90
7936;DHT22;4013;49.744;8.118;2023-02-28T08:41:28;-0.10;99.90
7936;DHT22;4013;49.744;8.118;2023-02-28T08:43:55;0.00;99.90
7936;DHT22;4013;49.744;8.118;2023-02-28T08:46:22;0.10;99.90
7936;DHT22;4013;49.744;8.118;2023-02-28T08:48:52;0.10;99.90
7936;DHT22;4013;49.744;8.118;2023-02-28T08:51:19;0.20;99.90
7936;DHT22;4013;49.744;8.118;2023-02-28T08:53:52;0.30;99.90
7936;DHT22;4013;49.744;8.118;2023-02-28T08:56:19;0.40;99.90
7936;DHT22;4013;49.744;8.118;2023-02-28T08:58:49;0.50;99.90
7936;DHT22;4013;49.744;8.118;2023-02-28T09:01:18;0.60;99.90
7936;DHT22;4013;49.744;8.118;2023-02-28T09:03:46;0.60;99.90
7936;DHT22;4013;49.744;8.118;2023-02-28T09:06:15;0.60;99.90
7936;DHT22;4013;49.744;8.118;2023-02-28T09:08:44;0.70;99.90
7936;DHT22;4013;49.744;8.118;2023-02-28T09:11:12;0.70;99.90
7936;DHT22;4013;49.744;8.118;2023-02-28T09:13:39;0.80;99.90
7936;DHT22;4013;49.744;8.118;2023-02-28T09:16:10;0.90;99.90
7936;DHT22;4013;49.744;8.118;2023-02-28T09:18:37;1.10;99.90
7936;DHT22;4013;49.744;8.118;2023-02-28T09:21:06;1.20;99.90
7936;DHT22;4013;49.744;8.118;2023-02-28T09:23:33;1.30;99.90
7936;DHT22;4013;49.744;8.118;2023-02-28T09:26:01;1.20;99.90
7936;DHT22;4013;49.744;8.118;2023-02-28T09:28:28;1.20;99.90
7936;DHT22;4013;49.744;8.118;2023-02-28T09:30:56;1.30;99.90
7936;DHT22;4013;49.744;8.118;2023-02-28T09:33:26;1.20;99.90
7936;DHT22;4013;49.744;8.118;2023-02-28T09:35:58;1.30;99.90
7936;DHT22;4013;49.744;8.118;2023-02-28T09:38:25;1.40;99.90
7936;DHT22;4013;49.744;8.118;2023-02-28T09:40:56;1.50;99.90
7936;DHT22;4013;49.744;8.118;2023-02-28T09:43:26;1.60;99.90
7936;DHT22;4013;49.744;8.118;2023-02-28T09:45:59;1.60;99.90
7936;DHT22;4013;49.744;8.118;2023-02-28T09:48:33;1.60;99.90
7936;DHT22;4013;49.744;8.118;2023-02-28T09:51:04;1.60;99.90
7936;DHT22;4013;49.744;8.118;2023-02-28T09:53:33;1.70;99.90
7936;DHT22;4013;49.744;8.118;2023-02-28T09:56:03;1.70;99.90
7936;DHT22;4013;49.744;8.118;2023-02-28T09:58:37;1.80;99.90
7936;DHT22;4013;49.744;8.118;2023-02-28T10:01:12;1.90;99.90
7936;DHT22;4013;49.744;8.118;2023-02-28T10:03:47;1.90;99.90
7936;DHT22;4013;49.744;8.118;2023-02-28T10:06:19;2.00;99.90
7936;DHT22;4013;49.744;8.118;2023-02-28T10:08:55;2.00;99.90
7936;DHT22;4013;49.744;8.118;2023-02-28T10:11:24;2.10;99.90
7936;DHT22;4013;49.744;8.118;2023-02-28T10:13:54;2.10;99.90
7936;DHT22;4013;49.744;8.118;2023-02-28T10:16:31;2.20;99.90
7936;DHT22;4013;49.744;8.118;2023-02-28T10:19:04;2.30;99.90
7936;DHT22;4013;49.744;8.118;2023-02-28T10:21:36;2.40;99.90
7936;DHT22;4013;49.744;8.118;2023-02-28T10:24:14;2.40;99.90
7936;DHT22;4013;49.744;8.118;2023-02-28T10:26:44;2.40;99.90
7936;DHT22;4013;49.744;8.118;2023-02-28T10:29:12;2.30;99.90
7936;DHT22;4013;49.744;8.118;2023-02-28T10:31:39;2.30;99.90
7936;DHT22;4013;49.744;8.118;2023-02-28T10:34:08;2.50;99.90
7936;DHT22;4013;49.744;8.118;2023-02-28T10:36:38;2.70;99.90
7936;DHT22;4013;49.744;8.118;2023-02-28T10:39:36;2.70;99.90
7936;DHT22;4013;49.744;8.118;2023-02-28T10:42:04;2.70;99.90
7936;DHT22;4013;49.744;8.118;2023-02-28T10:44:31;2.90;99.90
7936;DHT22;4013;49.744;8.118;2023-02-28T10:46:58;2.90;99.90
7936;DHT22;4013;49.744;8.118;2023-02-28T10:49:28;2.90;99.90
7936;DHT22;4013;49.744;8.118;2023-02-28T10:51:57;2.70;99.90
7936;DHT22;4013;49.744;8.118;2023-02-28T10:54:30;2.60;99.90
7936;DHT22;4013;49.744;8.118;2023-02-28T10:57:09;2.70;99.90
7936;DHT22;4013;49.744;8.118;2023-02-28T10:59:41;2.90;99.90
7936;DHT22;4013;49.744;8.118;2023-02-28T11:02:31;3.10;99.90
7936;DHT22;4013;49.744;8.118;2023-02-28T11:05:00;3.00;99.90
7936;DHT22;4013;49.744;8.118;2023-02-28T11:07:27;3.10;99.90
7936;DHT22;4013;49.744;8.118;2023-02-28T11:09:56;3.20;99.90
7936;DHT22;4013;49.744;8.118;2023-02-28T11:12:26;3.30;99.90
7936;DHT22;4013;49.744;8.118;2023-02-28T11:14:56;3.40;99.90
7936;DHT22;4013;49.744;8.118;2023-02-28T11:17:25;3.40;99.90
7936;DHT22;4013;49.744;8.118;2023-02-28T11:20:00;3.30;99.90
7936;DHT22;4013;49.744;8.118;2023-02-28T11:22:35;3.10;99.90
7936;DHT22;4013;49.744;8.118;2023-02-28T11:25:09;3.00;99.90
7936;DHT22;4013;49.744;8.118;2023-02-28T11:27:47;2.90;99.90
7936;DHT22;4013;49.744;8.118;2023-02-28T11:30:33;2.90;99.90
7936;DHT22;4013;49.744;8.118;2023-02-28T11:35:44;3.00;99.90
7936;DHT22;4013;49.744;8.118;2023-02-28T11:38:12;3.10;99.90
7936;DHT22;4013;49.744;8.118;2023-02-28T11:40:43;3.10;99.90
7936;DHT22;4013;49.744;8.118;2023-02-28T11:43:23;3.20;99.90
7936;DHT22;4013;49.744;8.118;2023-02-28T11:46:17;3.10;99.90
7936;DHT22;4013;49.744;8.118;2023-02-28T11:48:57;3.20;99.90
7936;DHT22;4013;49.744;8.118;2023-02-28T11:51:29;3.30;99.90
7936;DHT22;4013;49.744;8.118;2023-02-28T11:54:21;3.30;99.90
7936;DHT22;4013;49.744;8.118;2023-02-28T11:56:53;3.40;99.90
7936;DHT22;4013;49.744;8.118;2023-02-28T11:59:43;3.60;99.40
7936;DHT22;4013;49.744;8.118;2023-02-28T12:02:24;3.60;97.10
7936;DHT22;4013;49.744;8.118;2023-02-28T12:07:55;3.60;97.90
7936;DHT22;4013;49.744;8.118;2023-02-28T12:10:29;3.70;97.90
7936;DHT22;4013;49.744;8.118;2023-02-28T12:13:16;3.90;98.20
7936;DHT22;4013;49.744;8.118;2023-02-28T12:15:59;3.80;96.40
7936;DHT22;4013;49.744;8.118;2023-02-28T12:18:47;3.80;97.50
7936;DHT22;4013;49.744;8.118;2023-02-28T12:21:27;3.80;95.60
7936;DHT22;4013;49.744;8.118;2023-02-28T12:24:11;3.70;96.80
7936;DHT22;4013;49.744;8.118;2023-02-28T12:26:42;3.90;97.20
7936;DHT22;4013;49.744;8.118;2023-02-28T12:29:16;4.00;97.70
7936;DHT22;4013;49.744;8.118;2023-02-28T12:31:49;4.00;95.80
7936;DHT22;4013;49.744;8.118;2023-02-28T12:34:20;4.00;97.10
7936;DHT22;4013;49.744;8.118;2023-02-28T12:36:50;4.10;95.70
7936;DHT22;4013;49.744;8.118;2023-02-28T12:39:25;4.00;95.60
7936;DHT22;4013;49.744;8.118;2023-02-28T12:41:54;4.10;95.40
7936;DHT22;4013;49.744;8.118;2023-02-28T12:44:28;4.20;94.10
7936;DHT22;4013;49.744;8.118;2023-02-28T12:47:00;4.30;94.90
7936;DHT22;4013;49.744;8.118;2023-02-28T12:49:33;4.30;95.10
7936;DHT22;4013;49.744;8.118;2023-02-28T12:52:02;4.30;95.40
7936;DHT22;4013;49.744;8.118;2023-02-28T12:54:38;4.20;95.20
7936;DHT22;4013;49.744;8.118;2023-02-28T12:57:12;4.10;95.60
7936;DHT22;4013;49.744;8.118;2023-02-28T12:59:44;4.10;94.40
7936;DHT22;4013;49.744;8.118;2023-02-28T13:02:41;4.10;95.10
7936;DHT22;4013;49.744;8.118;2023-02-28T13:05:39;4.00;95.20
7936;DHT22;4013;49.744;8.118;2023-02-28T13:08:32;4.00;95.40
7936;DHT22;4013;49.744;8.118;2023-02-28T13:11:07;4.20;95.80
7936;DHT22;4013;49.744;8.118;2023-02-28T13:13:57;4.40;94.60
7936;DHT22;4013;49.744;8.118;2023-02-28T13:16:24;4.50;94.30
7936;DHT22;4013;49.744;8.118;2023-02-28T13:18:51;4.50;92.80
7936;DHT22;4013;49.744;8.118;2023-02-28T13:21:23;4.60;93.50
7936;DHT22;4013;49.744;8.118;2023-02-28T13:24:02;4.70;93.90
7936;DHT22;4013;49.744;8.118;2023-02-28T13:29:36;4.90;91.80
7936;DHT22;4013;49.744;8.118;2023-02-28T13:35:15;5.60;83.80
7936;DHT22;4013;49.744;8.118;2023-02-28T13:38:23;6.10;79.80
7936;DHT22;4013;49.744;8.118;2023-02-28T13:40:51;6.80;73.70
7936;DHT22;4013;49.744;8.118;2023-02-28T13:43:18;7.10;67.70
7936;DHT22;4013;49.744;8.118;2023-02-28T13:46:12;7.50;65.60
7936;DHT22;4013;49.744;8.118;2023-02-28T13:48:39;7.70;63.70
7936;DHT22;4013;49.744;8.118;2023-02-28T13:54:18;7.70;61.40
7936;DHT22;4013;49.744;8.118;2023-02-28T13:56:57;7.90;60.30
7936;DHT22;4013;49.744;8.118;2023-02-28T13:59:33;8.10;59.50
7936;DHT22;4013;49.744;8.118;2023-02-28T14:02:21;8.00;57.20
7936;DHT22;4013;49.744;8.118;2023-02-28T14:05:01;8.40;56.10
7936;DHT22;4013;49.744;8.118;2023-02-28T14:07:31;8.10;54.90
7936;DHT22;4013;49.744;8.118;2023-02-28T14:10:02;8.30;56.00
7936;DHT22;4013;49.744;8.118;2023-02-28T14:12:56;8.10;56.10
7936;DHT22;4013;49.744;8.118;2023-02-28T14:15:41;7.90;57.20
7936;DHT22;4013;49.744;8.118;2023-02-28T14:18:29;8.20;56.70
7936;DHT22;4013;49.744;8.118;2023-02-28T14:21:14;8.40;57.20
7936;DHT22;4013;49.744;8.118;2023-02-28T14:24:21;8.30;55.20
7936;DHT22;4013;49.744;8.118;2023-02-28T14:27:03;8.00;56.30
7936;DHT22;4013;49.744;8.118;2023-02-28T14:32:43;7.30;59.70
7936;DHT22;4013;49.744;8.118;2023-02-28T14:35:22;7.80;58.20
7936;DHT22;4013;49.744;8.118;2023-02-28T14:37:54;7.70;57.60
7936;DHT22;4013;49.744;8.118;2023-02-28T14:40:27;7.80;57.40
7936;DHT22;4013;49.744;8.118;2023-02-28T14:42:56;8.10;57.10
7936;DHT22;4013;49.744;8.118;2023-02-28T14:45:27;8.00;56.50
7936;DHT22;4013;49.744;8.118;2023-02-28T14:47:57;7.90;58.00
7936;DHT22;4013;49.744;8.118;2023-02-28T14:50:30;7.30;59.90
7936;DHT22;4013;49.744;8.118;2023-02-28T14:52:57;7.30;61.20
7936;DHT22;4013;49.744;8.118;2023-02-28T14:55:28;6.70;63.30
7936;DHT22;4013;49.744;8.118;2023-02-28T14:58:00;6.20;66.70
7936;DHT22;4013;49.744;8.118;2023-02-28T15:00:29;5.90;69.10
7936;DHT22;4013;49.744;8.118;2023-02-28T15:03:01;5.80;70.50
7936;DHT22;4013;49.744;8.118;2023-02-28T15:05:51;5.60;73.50
7936;DHT22;4013;49.744;8.118;2023-02-28T15:08:21;5.40;73.90
7936;DHT22;4013;49.744;8.118;2023-02-28T15:10:54;5.40;77.90
7936;DHT22;4013;49.744;8.118;2023-02-28T15:13:22;5.40;78.40
7936;DHT22;4013;49.744;8.118;2023-02-28T15:15:54;5.40;77.70
7936;DHT22;4013;49.744;8.118;2023-02-28T15:18:28;5.30;79.50
7936;DHT22;4013;49.744;8.118;2023-02-28T15:21:00;5.30;81.70
7936;DHT22;4013;49.744;8.118;2023-02-28T15:23:29;5.30;79.90
7936;DHT22;4013;49.744;8.118;2023-02-28T15:25:57;5.20;80.10
7936;DHT22;4013;49.744;8.118;2023-02-28T15:28:25;5.20;80.70
7936;DHT22;4013;49.744;8.118;2023-02-28T15:30:56;5.20;81.00
7936;DHT22;4013;49.744;8.118;2023-02-28T15:33:25;5.20;82.00
7936;DHT22;4013;49.744;8.118;2023-02-28T15:36:04;5.10;82.80
7936;DHT22;4013;49.744;8.118;2023-02-28T15:38:35;5.10;82.60
7936;DHT22;4013;49.744;8.118;2023-02-28T15:41:03;5.00;84.30
7936;DHT22;4013;49.744;8.118;2023-02-28T15:43:35;5.00;85.40
7936;DHT22;4013;49.744;8.118;2023-02-28T15:46:04;5.00;85.50
7936;DHT22;4013;49.744;8.118;2023-02-28T15:48:34;4.90;84.20
7936;DHT22;4013;49.744;8.118;2023-02-28T15:51:07;4.90;85.40
7936;DHT22;4013;49.744;8.118;2023-02-28T15:53:37;4.80;87.20
7936;DHT22;4013;49.744;8.118;2023-02-28T15:56:13;4.80;87.30
7936;DHT22;4013;49.744;8.118;2023-02-28T15:58:41;4.70;89.60
7936;DHT22;4013;49.744;8.118;2023-02-28T16:01:20;4.70;90.40
7936;DHT22;4013;49.744;8.118;2023-02-28T16:03:54;4.70;91.10
7936;DHT22;4013;49.744;8.118;2023-02-28T16:06:39;4.90;90.50
7936;DHT22;4013;49.744;8.118;2023-02-28T16:09:17;4.70;89.30
7936;DHT22;4013;49.744;8.118;2023-02-28T16:11:56;4.70;90.60
7936;DHT22;4013;49.744;8.118;2023-02-28T16:14:28;4.70;90.40
7936;DHT22;4013;49.744;8.118;2023-02-28T16:17:04;4.80;90.50
7936;DHT22;4013;49.744;8.118;2023-02-28T16:19:32;4.70;90.60
7936;DHT22;4013;49.744;8.118;2023-02-28T16:22:05;4.80;91.10
7936;DHT22;4013;49.744;8.118;2023-02-28T16:24:33;4.80;91.00
7936;DHT22;4013;49.744;8.118;2023-02-28T16:27:20;4.70;91.70
7936;DHT22;4013;49.744;8.118;2023-02-28T16:29:48;4.60;92.20
7936;DHT22;4013;49.744;8.118;2023-02-28T16:32:16;4.50;93.20
7936;DHT22;4013;49.744;8.118;2023-02-28T16:34:43;4.50;94.40
7936;DHT22;4013;49.744;8.118;2023-02-28T16:37:16;4.50;94.00
7936;DHT22;4013;49.744;8.118;2023-02-28T16:39:45;4.50;94.60
7936;DHT22;4013;49.744;8.118;2023-02-28T16:42:16;4.40;95.20
7936;DHT22;4013;49.744;8.118;2023-02-28T16:44:47;4.40;95.60
7936;DHT22;4013;49.744;8.118;2023-02-28T16:47:14;4.30;96.60
7936;DHT22;4013;49.744;8.118;2023-02-28T16:49:41;4.30;96.90
7936;DHT22;4013;49.744;8.118;2023-02-28T16:52:08;4.30;97.00
7936;DHT22;4013;49.744;8.118;2023-02-28T16:54:37;4.30;97.60